< < Back
Terminal Aerodrome Forecast


Current Version              Previous Versions:   1  2  3  4  5  6  7  8  9  

Terminal Aerodrome Forecast

077
FTUS42 KGSP 210500
TAFGSP
TAF
KGSP 210524Z 2106/2206 22003KT P6SM FEW170
     FM211100 30003KT 5SM BR FEW250
     FM211300 00000KT P6SM FEW250
     FM211800 30006KT P6SM FEW250
     FM220000 36009KT P6SM FEW150=



Latest METAR

603
SAUS70 KWBC 211300 RRC
MTRGSP
METAR KGSP 211253Z 00000KT 10SM CLR 11/10 A2996 RMK AO2 SLP142
T01110100


USA.gov is the U.S. government's official web portal to all federal, state and local government web resources and services.